sensor_id;sensor_type;location;lat;lon;timestamp;temperature;humidity
23079;DHT22;11707;50.830;4.364;2022-11-30T00:01:19;6.50;99.90
23079;DHT22;11707;50.830;4.364;2022-11-30T00:03:46;6.40;99.90
23079;DHT22;11707;50.830;4.364;2022-11-30T00:06:14;6.40;99.90
23079;DHT22;11707;50.830;4.364;2022-11-30T00:11:17;6.30;99.90
23079;DHT22;11707;50.830;4.364;2022-11-30T00:13:43;6.10;99.90
23079;DHT22;11707;50.830;4.364;2022-11-30T00:16:09;6.10;99.90
23079;DHT22;11707;50.830;4.364;2022-11-30T00:18:36;6.10;99.90
23079;DHT22;11707;50.830;4.364;2022-11-30T00:21:04;6.10;99.90
23079;DHT22;11707;50.830;4.364;2022-11-30T00:23:34;6.10;99.90
23079;DHT22;11707;50.830;4.364;2022-11-30T00:26:01;6.10;99.90
23079;DHT22;11707;50.830;4.364;2022-11-30T00:28:28;6.00;99.90
23079;DHT22;11707;50.830;4.364;2022-11-30T00:30:59;6.10;99.90
23079;DHT22;11707;50.830;4.364;2022-11-30T00:33:26;6.30;99.90
23079;DHT22;11707;50.830;4.364;2022-11-30T00:35:59;6.50;99.90
23079;DHT22;11707;50.830;4.364;2022-11-30T00:38:25;6.50;99.90
23079;DHT22;11707;50.830;4.364;2022-11-30T00:40:51;6.40;99.90
23079;DHT22;11707;50.830;4.364;2022-11-30T00:43:17;6.30;99.90
23079;DHT22;11707;50.830;4.364;2022-11-30T00:45:43;6.20;99.90
23079;DHT22;11707;50.830;4.364;2022-11-30T00:48:09;6.20;99.90
23079;DHT22;11707;50.830;4.364;2022-11-30T00:50:34;6.40;99.90
23079;DHT22;11707;50.830;4.364;2022-11-30T00:53:00;6.40;99.90
23079;DHT22;11707;50.830;4.364;2022-11-30T00:55:26;6.40;99.90
23079;DHT22;11707;50.830;4.364;2022-11-30T00:57:52;6.50;99.90
23079;DHT22;11707;50.830;4.364;2022-11-30T01:00:18;6.50;99.90
23079;DHT22;11707;50.830;4.364;2022-11-30T01:02:44;6.50;99.90
23079;DHT22;11707;50.830;4.364;2022-11-30T01:05:10;6.70;99.90
23079;DHT22;11707;50.830;4.364;2022-11-30T01:07:36;6.80;99.90
23079;DHT22;11707;50.830;4.364;2022-11-30T01:10:02;6.60;99.90
23079;DHT22;11707;50.830;4.364;2022-11-30T01:12:28;6.60;99.90
23079;DHT22;11707;50.830;4.364;2022-11-30T01:14:53;6.70;99.90
23079;DHT22;11707;50.830;4.364;2022-11-30T01:17:19;6.70;99.90
23079;DHT22;11707;50.830;4.364;2022-11-30T01:19:45;6.80;99.90
23079;DHT22;11707;50.830;4.364;2022-11-30T01:22:12;6.90;99.90
23079;DHT22;11707;50.830;4.364;2022-11-30T01:24:37;7.10;99.90
23079;DHT22;11707;50.830;4.364;2022-11-30T01:27:03;7.20;99.90
23079;DHT22;11707;50.830;4.364;2022-11-30T01:29:29;7.30;99.90
23079;DHT22;11707;50.830;4.364;2022-11-30T01:31:54;7.50;99.90
23079;DHT22;11707;50.830;4.364;2022-11-30T01:34:21;7.50;99.90
23079;DHT22;11707;50.830;4.364;2022-11-30T01:36:47;7.00;99.90
23079;DHT22;11707;50.830;4.364;2022-11-30T01:39:13;7.00;99.90
23079;DHT22;11707;50.830;4.364;2022-11-30T01:41:39;7.00;99.90
23079;DHT22;11707;50.830;4.364;2022-11-30T01:46:53;7.10;99.90
23079;DHT22;11707;50.830;4.364;2022-11-30T01:49:48;7.30;99.90
23079;DHT22;11707;50.830;4.364;2022-11-30T01:54:54;7.40;99.90
23079;DHT22;11707;50.830;4.364;2022-11-30T01:57:42;7.50;99.90
23079;DHT22;11707;50.830;4.364;2022-11-30T02:00:11;7.60;99.90
23079;DHT22;11707;50.830;4.364;2022-11-30T02:05:19;7.30;99.90
23079;DHT22;11707;50.830;4.364;2022-11-30T02:07:45;7.00;99.90
23079;DHT22;11707;50.830;4.364;2022-11-30T02:10:16;7.00;99.90
23079;DHT22;11707;50.830;4.364;2022-11-30T02:15:19;6.90;99.90
23079;DHT22;11707;50.830;4.364;2022-11-30T02:18:19;7.10;99.90
23079;DHT22;11707;50.830;4.364;2022-11-30T02:26:25;7.10;99.90
23079;DHT22;11707;50.830;4.364;2022-11-30T02:32:00;6.50;99.90
23079;DHT22;11707;50.830;4.364;2022-11-30T02:34:30;6.60;99.90
23079;DHT22;11707;50.830;4.364;2022-11-30T02:36:58;6.50;99.90
23079;DHT22;11707;50.830;4.364;2022-11-30T02:39:24;6.30;99.90
23079;DHT22;11707;50.830;4.364;2022-11-30T02:41:50;6.30;99.90
23079;DHT22;11707;50.830;4.364;2022-11-30T02:44:16;6.60;99.90
23079;DHT22;11707;50.830;4.364;2022-11-30T02:52:17;6.60;99.90
23079;DHT22;11707;50.830;4.364;2022-11-30T02:54:44;6.70;99.90
23079;DHT22;11707;50.830;4.364;2022-11-30T02:57:10;6.90;99.90
23079;DHT22;11707;50.830;4.364;2022-11-30T02:59:37;7.20;99.90
23079;DHT22;11707;50.830;4.364;2022-11-30T03:02:03;7.30;99.90
23079;DHT22;11707;50.830;4.364;2022-11-30T03:04:29;7.20;99.90
23079;DHT22;11707;50.830;4.364;2022-11-30T03:06:54;7.20;99.90
23079;DHT22;11707;50.830;4.364;2022-11-30T03:09:20;7.40;99.90
23079;DHT22;11707;50.830;4.364;2022-11-30T03:11:46;7.50;99.90
23079;DHT22;11707;50.830;4.364;2022-11-30T03:14:11;7.40;99.90
23079;DHT22;11707;50.830;4.364;2022-11-30T03:16:37;7.40;99.90
23079;DHT22;11707;50.830;4.364;2022-11-30T03:19:03;7.40;99.90
23079;DHT22;11707;50.830;4.364;2022-11-30T03:21:30;7.60;99.90
23079;DHT22;11707;50.830;4.364;2022-11-30T03:23:55;7.60;99.90
23079;DHT22;11707;50.830;4.364;2022-11-30T03:26:21;7.40;99.90
23079;DHT22;11707;50.830;4.364;2022-11-30T03:28:47;7.10;99.90
23079;DHT22;11707;50.830;4.364;2022-11-30T03:31:13;6.90;99.90
23079;DHT22;11707;50.830;4.364;2022-11-30T03:33:41;6.70;99.90
23079;DHT22;11707;50.830;4.364;2022-11-30T03:36:08;6.90;99.90
23079;DHT22;11707;50.830;4.364;2022-11-30T03:38:36;6.90;99.90
23079;DHT22;11707;50.830;4.364;2022-11-30T03:41:09;7.20;99.90
23079;DHT22;11707;50.830;4.364;2022-11-30T03:43:35;7.00;99.90
23079;DHT22;11707;50.830;4.364;2022-11-30T03:46:01;7.00;99.90
23079;DHT22;11707;50.830;4.364;2022-11-30T03:48:27;7.00;99.90
23079;DHT22;11707;50.830;4.364;2022-11-30T03:50:53;6.60;99.90
23079;DHT22;11707;50.830;4.364;2022-11-30T03:53:21;6.50;99.90
23079;DHT22;11707;50.830;4.364;2022-11-30T03:55:54;6.50;99.90
23079;DHT22;11707;50.830;4.364;2022-11-30T03:58:21;6.60;99.90
23079;DHT22;11707;50.830;4.364;2022-11-30T04:00:47;6.60;99.90
23079;DHT22;11707;50.830;4.364;2022-11-30T04:03:14;6.60;99.90
23079;DHT22;11707;50.830;4.364;2022-11-30T04:05:39;6.60;99.90
23079;DHT22;11707;50.830;4.364;2022-11-30T04:08:05;6.60;99.90
23079;DHT22;11707;50.830;4.364;2022-11-30T04:10:32;6.60;99.90
23079;DHT22;11707;50.830;4.364;2022-11-30T04:12:57;6.60;99.90
23079;DHT22;11707;50.830;4.364;2022-11-30T04:15:23;6.70;99.90
23079;DHT22;11707;50.830;4.364;2022-11-30T04:17:50;6.90;99.90
23079;DHT22;11707;50.830;4.364;2022-11-30T04:20:16;7.00;99.90
23079;DHT22;11707;50.830;4.364;2022-11-30T04:22:41;7.10;99.90
23079;DHT22;11707;50.830;4.364;2022-11-30T04:25:07;7.20;99.90
23079;DHT22;11707;50.830;4.364;2022-11-30T04:27:33;7.30;99.90
23079;DHT22;11707;50.830;4.364;2022-11-30T04:29:59;7.30;99.90
23079;DHT22;11707;50.830;4.364;2022-11-30T04:32:25;7.20;99.90
23079;DHT22;11707;50.830;4.364;2022-11-30T04:34:50;6.80;99.90
23079;DHT22;11707;50.830;4.364;2022-11-30T04:37:16;6.50;99.90
23079;DHT22;11707;50.830;4.364;2022-11-30T04:39:42;6.40;99.90
23079;DHT22;11707;50.830;4.364;2022-11-30T04:42:07;6.40;99.90
23079;DHT22;11707;50.830;4.364;2022-11-30T04:44:33;6.40;99.90
23079;DHT22;11707;50.830;4.364;2022-11-30T04:46:59;6.30;99.90
23079;DHT22;11707;50.830;4.364;2022-11-30T04:49:24;6.40;99.90
23079;DHT22;11707;50.830;4.364;2022-11-30T04:51:50;6.30;99.90
23079;DHT22;11707;50.830;4.364;2022-11-30T04:54:16;6.20;99.90
23079;DHT22;11707;50.830;4.364;2022-11-30T04:56:42;5.90;99.90
23079;DHT22;11707;50.830;4.364;2022-11-30T04:59:08;6.00;99.90
23079;DHT22;11707;50.830;4.364;2022-11-30T05:01:33;6.10;99.90
23079;DHT22;11707;50.830;4.364;2022-11-30T05:03:59;6.00;99.90
23079;DHT22;11707;50.830;4.364;2022-11-30T05:06:25;6.00;99.90
23079;DHT22;11707;50.830;4.364;2022-11-30T05:08:51;6.10;99.90
23079;DHT22;11707;50.830;4.364;2022-11-30T05:11:17;6.10;99.90
23079;DHT22;11707;50.830;4.364;2022-11-30T05:13:43;6.20;99.90
23079;DHT22;11707;50.830;4.364;2022-11-30T05:16:09;6.30;99.90
23079;DHT22;11707;50.830;4.364;2022-11-30T05:18:35;6.30;99.90
23079;DHT22;11707;50.830;4.364;2022-11-30T05:21:01;6.30;99.90
23079;DHT22;11707;50.830;4.364;2022-11-30T05:23:27;6.30;99.90
23079;DHT22;11707;50.830;4.364;2022-11-30T05:25:53;6.40;99.90
23079;DHT22;11707;50.830;4.364;2022-11-30T05:28:18;6.40;99.90
23079;DHT22;11707;50.830;4.364;2022-11-30T05:30:44;6.30;99.90
23079;DHT22;11707;50.830;4.364;2022-11-30T05:33:10;6.40;99.90
23079;DHT22;11707;50.830;4.364;2022-11-30T05:35:36;6.30;99.90
23079;DHT22;11707;50.830;4.364;2022-11-30T05:38:03;6.30;99.90
23079;DHT22;11707;50.830;4.364;2022-11-30T05:40:28;6.50;99.90
23079;DHT22;11707;50.830;4.364;2022-11-30T05:42:59;6.70;99.90
23079;DHT22;11707;50.830;4.364;2022-11-30T05:45:25;6.50;99.90
23079;DHT22;11707;50.830;4.364;2022-11-30T05:47:51;6.40;99.90
23079;DHT22;11707;50.830;4.364;2022-11-30T05:50:17;6.50;99.90
23079;DHT22;11707;50.830;4.364;2022-11-30T05:52:43;6.40;99.90
23079;DHT22;11707;50.830;4.364;2022-11-30T05:55:09;6.60;99.90
23079;DHT22;11707;50.830;4.364;2022-11-30T05:57:38;6.60;99.90
23079;DHT22;11707;50.830;4.364;2022-11-30T06:00:06;6.60;99.90
23079;DHT22;11707;50.830;4.364;2022-11-30T06:02:33;6.50;99.90
23079;DHT22;11707;50.830;4.364;2022-11-30T06:04:59;6.70;99.90
23079;DHT22;11707;50.830;4.364;2022-11-30T06:07:25;6.70;99.90
23079;DHT22;11707;50.830;4.364;2022-11-30T06:09:50;6.70;99.90
23079;DHT22;11707;50.830;4.364;2022-11-30T06:12:16;6.70;99.90
23079;DHT22;11707;50.830;4.364;2022-11-30T06:14:42;6.70;99.90
23079;DHT22;11707;50.830;4.364;2022-11-30T06:17:07;6.80;99.90
23079;DHT22;11707;50.830;4.364;2022-11-30T06:19:33;6.90;99.90
23079;DHT22;11707;50.830;4.364;2022-11-30T06:21:59;6.90;99.90
23079;DHT22;11707;50.830;4.364;2022-11-30T06:24:25;6.80;99.90
23079;DHT22;11707;50.830;4.364;2022-11-30T06:26:51;6.90;99.90
23079;DHT22;11707;50.830;4.364;2022-11-30T06:29:16;6.80;99.90
23079;DHT22;11707;50.830;4.364;2022-11-30T06:31:42;6.90;99.90
23079;DHT22;11707;50.830;4.364;2022-11-30T06:34:07;7.00;99.90
23079;DHT22;11707;50.830;4.364;2022-11-30T06:36:33;6.90;99.90
23079;DHT22;11707;50.830;4.364;2022-11-30T06:38:59;7.00;99.90
23079;DHT22;11707;50.830;4.364;2022-11-30T06:41:25;6.90;99.90
23079;DHT22;11707;50.830;4.364;2022-11-30T06:43:50;7.00;99.90
23079;DHT22;11707;50.830;4.364;2022-11-30T06:46:16;7.00;99.90
23079;DHT22;11707;50.830;4.364;2022-11-30T06:48:42;7.00;99.90
23079;DHT22;11707;50.830;4.364;2022-11-30T06:51:09;6.90;99.90
23079;DHT22;11707;50.830;4.364;2022-11-30T06:53:35;7.00;99.90
23079;DHT22;11707;50.830;4.364;2022-11-30T06:56:06;6.90;99.90
23079;DHT22;11707;50.830;4.364;2022-11-30T06:58:32;6.90;99.90
23079;DHT22;11707;50.830;4.364;2022-11-30T07:00:58;6.90;99.90
23079;DHT22;11707;50.830;4.364;2022-11-30T07:03:23;7.00;99.90
23079;DHT22;11707;50.830;4.364;2022-11-30T07:05:49;7.10;99.90
23079;DHT22;11707;50.830;4.364;2022-11-30T07:08:16;7.20;99.90
23079;DHT22;11707;50.830;4.364;2022-11-30T07:10:46;7.20;99.90
23079;DHT22;11707;50.830;4.364;2022-11-30T07:13:13;7.10;99.90
23079;DHT22;11707;50.830;4.364;2022-11-30T07:15:40;7.10;99.90
23079;DHT22;11707;50.830;4.364;2022-11-30T07:18:07;7.10;99.90
23079;DHT22;11707;50.830;4.364;2022-11-30T07:20:33;7.20;99.90
23079;DHT22;11707;50.830;4.364;2022-11-30T07:22:59;7.30;99.90
23079;DHT22;11707;50.830;4.364;2022-11-30T07:25:44;7.30;99.90
23079;DHT22;11707;50.830;4.364;2022-11-30T07:28:29;7.30;99.90
23079;DHT22;11707;50.830;4.364;2022-11-30T07:30:55;7.20;99.90
23079;DHT22;11707;50.830;4.364;2022-11-30T07:33:21;7.20;99.90
23079;DHT22;11707;50.830;4.364;2022-11-30T07:35:52;7.10;99.90
23079;DHT22;11707;50.830;4.364;2022-11-30T07:38:18;7.10;99.90
23079;DHT22;11707;50.830;4.364;2022-11-30T07:40:44;7.00;99.90
23079;DHT22;11707;50.830;4.364;2022-11-30T07:43:09;7.00;99.90
23079;DHT22;11707;50.830;4.364;2022-11-30T07:45:35;7.20;99.90
23079;DHT22;11707;50.830;4.364;2022-11-30T07:48:01;7.10;99.90
23079;DHT22;11707;50.830;4.364;2022-11-30T07:50:26;7.10;99.90
23079;DHT22;11707;50.830;4.364;2022-11-30T07:52:52;7.10;99.90
23079;DHT22;11707;50.830;4.364;2022-11-30T07:55:17;7.00;99.90
23079;DHT22;11707;50.830;4.364;2022-11-30T07:57:44;7.10;99.90
23079;DHT22;11707;50.830;4.364;2022-11-30T08:00:13;7.30;99.90
23079;DHT22;11707;50.830;4.364;2022-11-30T08:02:39;7.40;99.90
23079;DHT22;11707;50.830;4.364;2022-11-30T08:05:05;7.20;99.90
23079;DHT22;11707;50.830;4.364;2022-11-30T08:07:31;7.20;99.90
23079;DHT22;11707;50.830;4.364;2022-11-30T08:09:56;7.30;99.90
23079;DHT22;11707;50.830;4.364;2022-11-30T08:12:22;7.30;99.90
23079;DHT22;11707;50.830;4.364;2022-11-30T08:14:48;7.30;99.90
23079;DHT22;11707;50.830;4.364;2022-11-30T08:17:13;7.20;99.90
23079;DHT22;11707;50.830;4.364;2022-11-30T08:19:39;7.30;99.90
23079;DHT22;11707;50.830;4.364;2022-11-30T08:22:05;7.20;99.90
23079;DHT22;11707;50.830;4.364;2022-11-30T08:24:30;7.20;99.90
23079;DHT22;11707;50.830;4.364;2022-11-30T08:26:56;7.40;99.90
23079;DHT22;11707;50.830;4.364;2022-11-30T08:29:22;7.50;99.90
23079;DHT22;11707;50.830;4.364;2022-11-30T08:31:47;7.40;99.90
23079;DHT22;11707;50.830;4.364;2022-11-30T08:34:14;7.40;99.90
23079;DHT22;11707;50.830;4.364;2022-11-30T08:36:42;7.50;99.90
23079;DHT22;11707;50.830;4.364;2022-11-30T08:39:11;7.60;99.90
23079;DHT22;11707;50.830;4.364;2022-11-30T08:41:37;7.50;99.90
23079;DHT22;11707;50.830;4.364;2022-11-30T08:44:04;7.40;99.90
23079;DHT22;11707;50.830;4.364;2022-11-30T08:46:30;7.40;99.90
23079;DHT22;11707;50.830;4.364;2022-11-30T08:48:57;7.30;99.90
23079;DHT22;11707;50.830;4.364;2022-11-30T08:51:22;7.40;99.90
23079;DHT22;11707;50.830;4.364;2022-11-30T08:53:49;7.40;99.90
23079;DHT22;11707;50.830;4.364;2022-11-30T08:56:18;7.30;99.90
23079;DHT22;11707;50.830;4.364;2022-11-30T08:58:45;7.10;99.90
23079;DHT22;11707;50.830;4.364;2022-11-30T09:01:20;7.10;99.90
23079;DHT22;11707;50.830;4.364;2022-11-30T09:03:46;7.20;99.90
23079;DHT22;11707;50.830;4.364;2022-11-30T09:06:18;7.20;99.90
23079;DHT22;11707;50.830;4.364;2022-11-30T09:08:46;7.20;99.90
23079;DHT22;11707;50.830;4.364;2022-11-30T09:11:14;7.20;99.90
23079;DHT22;11707;50.830;4.364;2022-11-30T09:13:41;7.10;99.90
23079;DHT22;11707;50.830;4.364;2022-11-30T09:16:07;7.20;99.90
23079;DHT22;11707;50.830;4.364;2022-11-30T09:18:33;7.20;99.90
23079;DHT22;11707;50.830;4.364;2022-11-30T09:21:01;7.50;99.90
23079;DHT22;11707;50.830;4.364;2022-11-30T09:23:27;7.40;99.90
23079;DHT22;11707;50.830;4.364;2022-11-30T09:25:57;7.50;99.90
23079;DHT22;11707;50.830;4.364;2022-11-30T09:28:25;7.60;99.90
23079;DHT22;11707;50.830;4.364;2022-11-30T09:30:52;7.70;99.90
23079;DHT22;11707;50.830;4.364;2022-11-30T09:33:18;7.60;99.90
23079;DHT22;11707;50.830;4.364;2022-11-30T09:35:52;7.60;99.90
23079;DHT22;11707;50.830;4.364;2022-11-30T09:38:18;7.50;99.90
23079;DHT22;11707;50.830;4.364;2022-11-30T09:40:45;7.50;99.90
23079;DHT22;11707;50.830;4.364;2022-11-30T09:46:03;7.50;99.90
23079;DHT22;11707;50.830;4.364;2022-11-30T09:48:56;7.40;99.90
23079;DHT22;11707;50.830;4.364;2022-11-30T09:51:43;7.50;99.90
23079;DHT22;11707;50.830;4.364;2022-11-30T09:54:45;7.50;99.90
23079;DHT22;11707;50.830;4.364;2022-11-30T09:57:33;7.60;99.90
23079;DHT22;11707;50.830;4.364;2022-11-30T10:02:40;7.40;99.90
23079;DHT22;11707;50.830;4.364;2022-11-30T10:05:19;7.50;99.90
23079;DHT22;11707;50.830;4.364;2022-11-30T10:10:47;7.70;99.90
23079;DHT22;11707;50.830;4.364;2022-11-30T10:16:26;8.00;99.90
23079;DHT22;11707;50.830;4.364;2022-11-30T10:19:04;7.90;99.90
23079;DHT22;11707;50.830;4.364;2022-11-30T10:27:38;8.20;99.90
23079;DHT22;11707;50.830;4.364;2022-11-30T10:30:34;8.20;99.90
23079;DHT22;11707;50.830;4.364;2022-11-30T10:33:13;8.20;99.90
23079;DHT22;11707;50.830;4.364;2022-11-30T10:35:55;8.10;99.90
23079;DHT22;11707;50.830;4.364;2022-11-30T10:38:29;8.10;99.90
23079;DHT22;11707;50.830;4.364;2022-11-30T10:41:20;8.20;99.90
23079;DHT22;11707;50.830;4.364;2022-11-30T10:51:21;8.50;99.90
23079;DHT22;11707;50.830;4.364;2022-11-30T10:53:47;8.60;99.90
23079;DHT22;11707;50.830;4.364;2022-11-30T10:56:13;8.70;99.90
23079;DHT22;11707;50.830;4.364;2022-11-30T10:58:46;8.80;99.90
23079;DHT22;11707;50.830;4.364;2022-11-30T11:01:44;8.80;99.90
23079;DHT22;11707;50.830;4.364;2022-11-30T11:04:16;8.70;99.90
23079;DHT22;11707;50.830;4.364;2022-11-30T11:11:59;9.10;99.90
23079;DHT22;11707;50.830;4.364;2022-11-30T11:14:26;9.20;99.90
23079;DHT22;11707;50.830;4.364;2022-11-30T11:19:33;9.20;99.90
23079;DHT22;11707;50.830;4.364;2022-11-30T11:24:43;8.90;99.90
23079;DHT22;11707;50.830;4.364;2022-11-30T11:27:30;8.90;99.90
23079;DHT22;11707;50.830;4.364;2022-11-30T11:32:27;8.90;99.90
23079;DHT22;11707;50.830;4.364;2022-11-30T11:34:55;9.00;99.90
23079;DHT22;11707;50.830;4.364;2022-11-30T11:37:28;9.00;99.90
23079;DHT22;11707;50.830;4.364;2022-11-30T11:42:34;9.10;99.90
23079;DHT22;11707;50.830;4.364;2022-11-30T11:45:01;9.10;99.90
23079;DHT22;11707;50.830;4.364;2022-11-30T11:47:39;9.10;99.90
23079;DHT22;11707;50.830;4.364;2022-11-30T11:52:37;9.20;99.90
23079;DHT22;11707;50.830;4.364;2022-11-30T11:55:16;9.20;99.90
23079;DHT22;11707;50.830;4.364;2022-11-30T11:57:59;9.20;99.90
23079;DHT22;11707;50.830;4.364;2022-11-30T12:00:27;9.00;99.90
23079;DHT22;11707;50.830;4.364;2022-11-30T12:10:38;8.60;99.90
23079;DHT22;11707;50.830;4.364;2022-11-30T12:13:14;8.60;99.90
23079;DHT22;11707;50.830;4.364;2022-11-30T12:16:53;8.80;99.90
23079;DHT22;11707;50.830;4.364;2022-11-30T12:18:59;8.80;99.90
23079;DHT22;11707;50.830;4.364;2022-11-30T12:29:51;9.20;99.90
23079;DHT22;11707;50.830;4.364;2022-11-30T12:38:00;9.70;99.90
23079;DHT22;11707;50.830;4.364;2022-11-30T12:43:46;9.60;99.90
23079;DHT22;11707;50.830;4.364;2022-11-30T12:52:35;9.10;99.90
23079;DHT22;11707;50.830;4.364;2022-11-30T12:55:19;9.10;99.90
23079;DHT22;11707;50.830;4.364;2022-11-30T13:00:23;9.10;99.90
23079;DHT22;11707;50.830;4.364;2022-11-30T13:05:46;9.50;99.90
23079;DHT22;11707;50.830;4.364;2022-11-30T13:08:25;9.40;99.90
23079;DHT22;11707;50.830;4.364;2022-11-30T13:10:59;9.60;99.90
23079;DHT22;11707;50.830;4.364;2022-11-30T13:13:30;9.60;99.90
23079;DHT22;11707;50.830;4.364;2022-11-30T13:15:58;9.50;99.90
23079;DHT22;11707;50.830;4.364;2022-11-30T13:18:25;9.70;99.90
23079;DHT22;11707;50.830;4.364;2022-11-30T13:20:58;9.90;99.90
23079;DHT22;11707;50.830;4.364;2022-11-30T13:23:30;9.70;99.90
23079;DHT22;11707;50.830;4.364;2022-11-30T13:31:07;9.60;99.90
23079;DHT22;11707;50.830;4.364;2022-11-30T13:36:29;9.50;99.90
23079;DHT22;11707;50.830;4.364;2022-11-30T13:41:37;9.40;99.90
23079;DHT22;11707;50.830;4.364;2022-11-30T13:44:03;9.30;99.90
23079;DHT22;11707;50.830;4.364;2022-11-30T13:46:29;9.20;99.90
23079;DHT22;11707;50.830;4.364;2022-11-30T13:49:31;9.10;99.90
23079;DHT22;11707;50.830;4.364;2022-11-30T13:51:58;9.20;99.90
23079;DHT22;11707;50.830;4.364;2022-11-30T13:59:51;9.00;99.90
23079;DHT22;11707;50.830;4.364;2022-11-30T14:07:46;9.30;99.90
23079;DHT22;11707;50.830;4.364;2022-11-30T14:10:37;9.30;99.90
23079;DHT22;11707;50.830;4.364;2022-11-30T14:18:21;9.10;99.90
23079;DHT22;11707;50.830;4.364;2022-11-30T14:25:50;9.20;99.90
23079;DHT22;11707;50.830;4.364;2022-11-30T14:28:23;9.20;99.90
23079;DHT22;11707;50.830;4.364;2022-11-30T14:30:50;9.30;99.90
23079;DHT22;11707;50.830;4.364;2022-11-30T14:33:29;9.40;99.90
23079;DHT22;11707;50.830;4.364;2022-11-30T14:36:00;9.40;99.90
23079;DHT22;11707;50.830;4.364;2022-11-30T14:38:28;9.40;99.90
23079;DHT22;11707;50.830;4.364;2022-11-30T14:40:55;9.40;99.90
23079;DHT22;11707;50.830;4.364;2022-11-30T14:43:22;9.40;99.90
23079;DHT22;11707;50.830;4.364;2022-11-30T14:46:03;9.50;99.90
23079;DHT22;11707;50.830;4.364;2022-11-30T14:48:29;9.30;99.90
23079;DHT22;11707;50.830;4.364;2022-11-30T14:51:00;9.40;99.90
23079;DHT22;11707;50.830;4.364;2022-11-30T14:53:46;9.50;99.90
23079;DHT22;11707;50.830;4.364;2022-11-30T14:56:26;9.50;99.90
23079;DHT22;11707;50.830;4.364;2022-11-30T15:01:59;9.10;99.90
23079;DHT22;11707;50.830;4.364;2022-11-30T15:04:26;8.90;99.90
23079;DHT22;11707;50.830;4.364;2022-11-30T15:06:54;8.90;99.90
23079;DHT22;11707;50.830;4.364;2022-11-30T15:09:23;8.90;99.90
23079;DHT22;11707;50.830;4.364;2022-11-30T15:11:51;8.80;99.90
23079;DHT22;11707;50.830;4.364;2022-11-30T15:14:17;8.80;99.90
23079;DHT22;11707;50.830;4.364;2022-11-30T15:16:54;8.80;99.90
23079;DHT22;11707;50.830;4.364;2022-11-30T15:19:26;8.90;99.90
23079;DHT22;11707;50.830;4.364;2022-11-30T15:21:54;8.90;99.90
23079;DHT22;11707;50.830;4.364;2022-11-30T15:24:20;9.00;99.90
23079;DHT22;11707;50.830;4.364;2022-11-30T15:26:56;8.90;99.90
23079;DHT22;11707;50.830;4.364;2022-11-30T15:29:30;8.90;99.90
23079;DHT22;11707;50.830;4.364;2022-11-30T15:31:58;8.80;99.90
23079;DHT22;11707;50.830;4.364;2022-11-30T15:34:48;8.80;99.90
23079;DHT22;11707;50.830;4.364;2022-11-30T15:37:15;8.80;99.90
23079;DHT22;11707;50.830;4.364;2022-11-30T15:39:48;8.80;99.90
23079;DHT22;11707;50.830;4.364;2022-11-30T15:42:26;8.80;99.90
23079;DHT22;11707;50.830;4.364;2022-11-30T15:45:11;8.80;99.90
23079;DHT22;11707;50.830;4.364;2022-11-30T15:47:38;8.70;99.90
23079;DHT22;11707;50.830;4.364;2022-11-30T15:53:20;8.80;99.90
23079;DHT22;11707;50.830;4.364;2022-11-30T15:55:58;8.70;99.90
23079;DHT22;11707;50.830;4.364;2022-11-30T15:58:39;8.70;99.90
23079;DHT22;11707;50.830;4.364;2022-11-30T16:01:17;8.60;99.90
23079;DHT22;11707;50.830;4.364;2022-11-30T16:06:21;8.60;99.90
23079;DHT22;11707;50.830;4.364;2022-11-30T16:08:47;8.60;99.90
23079;DHT22;11707;50.830;4.364;2022-11-30T16:11:13;8.60;99.90
23079;DHT22;11707;50.830;4.364;2022-11-30T16:13:39;8.60;99.90
23079;DHT22;11707;50.830;4.364;2022-11-30T16:16:13;8.60;99.90
23079;DHT22;11707;50.830;4.364;2022-11-30T16:18:44;8.60;99.90
23079;DHT22;11707;50.830;4.364;2022-11-30T16:21:12;8.50;99.90
23079;DHT22;11707;50.830;4.364;2022-11-30T16:23:40;8.70;99.90
23079;DHT22;11707;50.830;4.364;2022-11-30T16:26:17;8.70;99.90
23079;DHT22;11707;50.830;4.364;2022-11-30T16:28:44;8.80;99.90
23079;DHT22;11707;50.830;4.364;2022-11-30T16:31:16;8.80;99.90
23079;DHT22;11707;50.830;4.364;2022-11-30T16:33:42;8.80;99.90
23079;DHT22;11707;50.830;4.364;2022-11-30T16:36:15;8.90;99.90
23079;DHT22;11707;50.830;4.364;2022-11-30T16:38:41;8.80;99.90
23079;DHT22;11707;50.830;4.364;2022-11-30T16:41:16;8.50;99.90
23079;DHT22;11707;50.830;4.364;2022-11-30T16:43:43;8.50;99.90
23079;DHT22;11707;50.830;4.364;2022-11-30T16:46:11;8.50;99.90
23079;DHT22;11707;50.830;4.364;2022-11-30T16:48:37;8.40;99.90
23079;DHT22;11707;50.830;4.364;2022-11-30T16:51:03;8.50;99.90
23079;DHT22;11707;50.830;4.364;2022-11-30T16:53:29;8.60;99.90
23079;DHT22;11707;50.830;4.364;2022-11-30T16:55:55;8.60;99.90
23079;DHT22;11707;50.830;4.364;2022-11-30T16:58:20;8.50;99.90
23079;DHT22;11707;50.830;4.364;2022-11-30T17:00:46;8.40;99.90
23079;DHT22;11707;50.830;4.364;2022-11-30T17:03:25;8.40;99.90
23079;DHT22;11707;50.830;4.364;2022-11-30T17:05:52;8.30;99.90
23079;DHT22;11707;50.830;4.364;2022-11-30T17:08:17;8.20;99.90
23079;DHT22;11707;50.830;4.364;2022-11-30T17:10:43;8.20;99.90
23079;DHT22;11707;50.830;4.364;2022-11-30T17:13:15;8.20;99.90
23079;DHT22;11707;50.830;4.364;2022-11-30T17:15:43;8.10;99.90
23079;DHT22;11707;50.830;4.364;2022-11-30T17:18:09;8.10;99.90
23079;DHT22;11707;50.830;4.364;2022-11-30T17:20:36;8.10;99.90
23079;DHT22;11707;50.830;4.364;2022-11-30T17:23:03;8.20;99.90
23079;DHT22;11707;50.830;4.364;2022-11-30T17:25:29;8.20;99.90
23079;DHT22;11707;50.830;4.364;2022-11-30T17:27:55;8.30;99.90
23079;DHT22;11707;50.830;4.364;2022-11-30T17:30:21;8.50;99.90
23079;DHT22;11707;50.830;4.364;2022-11-30T17:32:48;8.40;99.90
23079;DHT22;11707;50.830;4.364;2022-11-30T17:35:16;8.40;99.90
23079;DHT22;11707;50.830;4.364;2022-11-30T17:37:42;8.40;99.90
23079;DHT22;11707;50.830;4.364;2022-11-30T17:40:08;8.40;99.90
23079;DHT22;11707;50.830;4.364;2022-11-30T17:42:37;8.40;99.90
23079;DHT22;11707;50.830;4.364;2022-11-30T17:45:04;8.50;99.90
23079;DHT22;11707;50.830;4.364;2022-11-30T17:47:30;8.60;99.90
23079;DHT22;11707;50.830;4.364;2022-11-30T17:49:55;8.60;99.90
23079;DHT22;11707;50.830;4.364;2022-11-30T17:52:22;8.60;99.90
23079;DHT22;11707;50.830;4.364;2022-11-30T17:54:48;8.70;99.90
23079;DHT22;11707;50.830;4.364;2022-11-30T17:57:14;8.70;99.90
23079;DHT22;11707;50.830;4.364;2022-11-30T17:59:42;8.80;99.90
23079;DHT22;11707;50.830;4.364;2022-11-30T18:02:10;8.70;99.90
23079;DHT22;11707;50.830;4.364;2022-11-30T18:04:36;8.60;99.90
23079;DHT22;11707;50.830;4.364;2022-11-30T18:07:02;8.60;99.90
23079;DHT22;11707;50.830;4.364;2022-11-30T18:12:03;8.50;99.90
23079;DHT22;11707;50.830;4.364;2022-11-30T18:14:29;8.30;99.90
23079;DHT22;11707;50.830;4.364;2022-11-30T18:16:56;8.20;99.90
23079;DHT22;11707;50.830;4.364;2022-11-30T18:19:21;8.30;99.90
23079;DHT22;11707;50.830;4.364;2022-11-30T18:21:47;8.20;99.90
23079;DHT22;11707;50.830;4.364;2022-11-30T18:24:13;8.20;99.90
23079;DHT22;11707;50.830;4.364;2022-11-30T18:26:39;8.20;99.90